Time;durP1;ratioP1;P1;durP2;ratioP2;P2;SDS_P1;SDS_P2;PMS_P1;PMS_P2;Temp;Humidity;BMP_temperature;BMP_pressure;BME280_temperature;BME280_humidity;BME280_pressure;Samples;Min_cycle;Max_cycle;Signal;HPM_P1;HPM_P2
2023/09/05 00:01:49;;;;;;;6.78;3.85;;;;;;;-146.87;100.00;60295.22;4999560;28;20180;-49
2023/09/05 00:04:15;;;;;;;7.35;4.35;;;;;;;-146.87;100.00;60295.22;5002857;28;20212;-49
2023/09/05 00:06:40;;;;;;;4.47;4.07;;;;;;;-146.87;100.00;60295.22;4996133;28;20181;-48
2023/09/05 00:09:06;;;;;;;4.45;3.78;;;;;;;-146.87;100.00;60295.22;4997261;28;20239;-50
2023/09/05 00:11:33;;;;;;;4.15;3.85;;;;;;;-146.87;100.00;60295.22;5000620;28;20581;-49
2023/09/05 00:14:00;;;;;;;4.32;3.92;;;;;;;-146.87;100.00;60295.22;4997049;28;20190;-50
2023/09/05 00:16:26;;;;;;;4.43;4.13;;;;;;;-146.87;100.00;60295.22;4999826;28;20260;-49
2023/09/05 00:18:52;;;;;;;3.25;3.05;;;;;;;-146.87;100.00;60295.22;4999134;28;20192;-49
2023/09/05 00:21:18;;;;;;;4.15;3.72;;;;;;;-146.87;100.00;60295.22;5001536;28;20200;-47
2023/09/05 00:23:45;;;;;;;4.45;4.15;;;;;;;-146.87;100.00;60295.22;4996585;28;20515;-50
2023/09/05 00:26:10;;;;;;;3.92;3.65;;;;;;;-146.87;100.00;60295.22;4996269;28;20181;-48
2023/09/05 00:28:36;;;;;;;4.15;3.58;;;;;;;-146.87;100.00;60295.22;5000377;28;20201;-48
2023/09/05 00:31:01;;;;;;;4.05;3.75;;;;;;;-146.87;100.00;60295.22;4997653;28;20638;-51
2023/09/05 00:33:31;;;;;;;4.05;3.65;;;;;;;-146.87;100.00;60295.22;4994509;28;20611;-47
2023/09/05 00:35:56;;;;;;;5.50;4.32;;;;;;;-146.87;100.00;60295.22;4998571;28;20235;-50
2023/09/05 00:38:22;;;;;;;4.20;3.85;;;;;;;-146.87;100.00;60295.22;4995796;28;20585;-49
2023/09/05 00:40:51;;;;;;;4.75;4.20;;;;;;;-146.87;100.00;60295.22;4996239;28;20407;-48
2023/09/05 00:43:20;;;;;;;6.50;4.32;;;;;;;-146.87;100.00;60295.22;5005242;28;20180;-50
2023/09/05 00:45:52;;;;;;;3.78;3.47;;;;;;;-146.87;100.00;60295.22;4999915;28;20673;-48
2023/09/05 00:48:27;;;;;;;3.95;3.50;;;;;;;-146.87;100.00;60295.22;5011562;28;20201;-49
2023/09/05 00:50:56;;;;;;;3.63;3.30;;;;;;;-146.87;100.00;60295.22;4996282;28;20661;-50
2023/09/05 00:53:25;;;;;;;3.58;3.28;;;;;;;-146.87;100.00;60295.22;5001847;28;20180;-50
2023/09/05 00:55:51;;;;;;;3.92;3.63;;;;;;;-146.87;100.00;60295.22;4997129;28;20540;-51
2023/09/05 00:58:18;;;;;;;3.83;3.53;;;;;;;-146.87;100.00;60295.22;4997285;28;20173;-48
2023/09/05 01:00:43;;;;;;;4.35;3.78;;;;;;;-146.87;100.00;60295.22;4997301;28;20213;-48
2023/09/05 01:03:09;;;;;;;4.30;3.75;;;;;;;-146.87;100.00;60295.22;4996624;28;20204;-50
2023/09/05 01:05:37;;;;;;;4.32;3.70;;;;;;;-146.87;100.00;60295.22;4997816;28;20209;-48
2023/09/05 01:08:24;;;;;;;4.70;3.78;;;;;;;-146.87;100.00;60295.22;5009295;28;20256;-52
2023/09/05 01:11:00;;;;;;;3.88;3.58;;;;;;;-146.87;100.00;60295.22;5001480;28;20619;-48
2023/09/05 01:13:27;;;;;;;3.63;3.33;;;;;;;-146.87;100.00;60295.22;5005157;28;20172;-49
2023/09/05 01:15:54;;;;;;;3.90;3.60;;;;;;;-146.87;100.00;60295.22;4999341;28;20192;-52
2023/09/05 01:18:20;;;;;;;3.60;3.38;;;;;;;-146.87;100.00;60295.22;4999697;28;21751;-48
2023/09/05 01:21:15;;;;;;;3.75;3.30;;;;;;;-146.87;100.00;60295.22;4995453;28;20303;-51
2023/09/05 01:23:49;;;;;;;3.58;3.30;;;;;;;-146.87;100.00;60295.22;4983302;28;20209;-49
2023/09/05 01:26:16;;;;;;;3.65;3.35;;;;;;;-146.87;100.00;60295.22;4998026;28;20584;-49
2023/09/05 01:28:44;;;;;;;3.47;3.17;;;;;;;-146.87;100.00;60295.22;4993008;28;20204;-49
2023/09/05 01:31:11;;;;;;;3.53;3.33;;;;;;;-146.87;100.00;60295.22;4999239;28;20276;-48
2023/09/05 01:33:38;;;;;;;4.85;3.20;;;;;;;-146.87;100.00;60295.22;4996566;28;20189;-51
2023/09/05 01:36:07;;;;;;;3.30;3.03;;;;;;;-146.87;100.00;60295.22;5012549;28;20197;-47
2023/09/05 01:38:34;;;;;;;3.70;3.35;;;;;;;-146.87;100.00;60295.22;4994638;28;20651;-50
2023/09/05 01:40:59;;;;;;;3.80;3.45;;;;;;;-146.87;100.00;60295.22;4997986;28;20220;-48
2023/09/05 01:43:25;;;;;;;3.85;3.55;;;;;;;-146.87;100.00;60295.22;5003924;28;20254;-50
2023/09/05 01:45:51;;;;;;;4.30;3.30;;;;;;;-146.87;100.00;60295.22;4993587;28;20188;-49
2023/09/05 01:48:16;;;;;;;3.83;3.42;;;;;;;-146.87;100.00;60295.22;5001589;28;20219;-50
2023/09/05 01:50:42;;;;;;;4.93;3.10;;;;;;;-146.87;100.00;60295.22;4996953;28;20208;-50
2023/09/05 01:53:07;;;;;;;3.55;3.35;;;;;;;-146.87;100.00;60295.22;5001554;28;20169;-46
2023/09/05 01:55:32;;;;;;;3.47;3.17;;;;;;;-146.87;100.00;60295.22;4995837;28;20211;-48
2023/09/05 01:57:58;;;;;;;3.97;3.67;;;;;;;-146.87;100.00;60295.22;4993854;28;20268;-50
2023/09/05 02:00:24;;;;;;;3.47;3.28;;;;;;;-146.87;100.00;60295.22;4997485;28;20643;-48
2023/09/05 02:02:49;;;;;;;4.15;3.65;;;;;;;-146.87;100.00;60295.22;4991080;28;20191;-48
2023/09/05 02:05:15;;;;;;;3.88;3.10;;;;;;;-146.87;100.00;60295.22;4997086;28;20231;-48
2023/09/05 02:07:41;;;;;;;3.83;3.53;;;;;;;-146.87;100.00;60295.22;4998315;28;20232;-48
2023/09/05 02:10:07;;;;;;;3.55;3.35;;;;;;;-146.87;100.00;60295.22;4995011;28;20243;-47
2023/09/05 02:12:36;;;;;;;3.20;2.80;;;;;;;-146.87;100.00;60295.22;4995351;28;20652;-47
2023/09/05 02:15:02;;;;;;;3.47;3.15;;;;;;;-146.87;100.00;60295.22;4995566;28;20188;-49
2023/09/05 02:17:30;;;;;;;3.92;3.40;;;;;;;-146.87;100.00;60295.22;4996380;28;20235;-47
2023/09/05 02:19:59;;;;;;;4.28;3.80;;;;;;;-146.87;100.00;60295.22;5001620;28;20197;-48
2023/09/05 02:22:25;;;;;;;3.58;3.28;;;;;;;-146.87;100.00;60295.22;4996384;28;20189;-47
2023/09/05 02:24:50;;;;;;;3.78;3.47;;;;;;;-146.87;100.00;60295.22;5001148;28;20185;-47
2023/09/05 02:27:16;;;;;;;5.18;3.55;;;;;;;-146.87;100.00;60295.22;4999928;28;20205;-46
2023/09/05 02:29:41;;;;;;;4.82;4.43;;;;;;;-146.87;100.00;60295.22;5002273;28;20200;-45
2023/09/05 02:32:08;;;;;;;5.88;5.00;;;;;;;-146.87;100.00;60295.22;5004516;28;20267;-45
2023/09/05 02:34:34;;;;;;;6.38;5.35;;;;;;;-146.87;100.00;60295.22;5007111;28;20276;-44
2023/09/05 02:37:00;;;;;;;6.57;5.97;;;;;;;-146.87;100.00;60295.22;4998826;28;20573;-43
2023/09/05 02:39:27;;;;;;;5.30;4.80;;;;;;;-146.87;100.00;60295.22;5005705;28;20227;-44
2023/09/05 02:41:53;;;;;;;5.00;4.60;;;;;;;-146.87;100.00;60295.22;5003297;28;20220;-45
2023/09/05 02:44:18;;;;;;;5.88;4.72;;;;;;;-146.87;100.00;60295.22;4998677;28;20223;-43
2023/09/05 02:46:44;;;;;;;4.95;4.53;;;;;;;-146.87;100.00;60295.22;4996899;28;20718;-44
2023/09/05 02:49:10;;;;;;;5.50;4.75;;;;;;;-146.87;100.00;60295.22;5000325;28;20552;-43
2023/09/05 02:51:35;;;;;;;4.40;3.58;;;;;;;-146.87;100.00;60295.22;5002171;28;20193;-44
2023/09/05 02:54:01;;;;;;;4.45;4.15;;;;;;;-146.87;100.00;60295.22;4999950;28;20568;-44
2023/09/05 02:56:26;;;;;;;9.10;4.68;;;;;;;-146.87;100.00;60295.22;5000568;28;20185;-44
2023/09/05 02:58:52;;;;;;;4.68;4.28;;;;;;;-146.87;100.00;60295.22;5002897;28;20265;-44
2023/09/05 03:01:17;;;;;;;4.47;4.15;;;;;;;-146.87;100.00;60295.22;5000119;28;20232;-45
2023/09/05 03:03:43;;;;;;;5.05;4.55;;;;;;;-146.87;100.00;60295.22;4994349;28;20710;-45
2023/09/05 03:06:13;;;;;;;4.70;4.40;;;;;;;-146.87;100.00;60295.22;5003627;28;20650;-44
2023/09/05 03:08:42;;;;;;;3.88;3.58;;;;;;;-146.87;100.00;60295.22;4999625;28;20208;-46
2023/09/05 03:11:08;;;;;;;4.60;4.20;;;;;;;-146.87;100.00;60295.22;4999545;28;20205;-45
2023/09/05 03:13:34;;;;;;;5.47;4.68;;;;;;;-146.87;100.00;60295.22;4997980;28;20180;-44
2023/09/05 03:15:59;;;;;;;3.97;3.60;;;;;;;-146.87;100.00;60295.22;4999907;28;20688;-45
2023/09/05 03:18:25;;;;;;;6.15;4.45;;;;;;;-146.87;100.00;60295.22;5002115;28;20174;-44
2023/09/05 03:20:51;;;;;;;4.25;3.95;;;;;;;-146.87;100.00;60295.22;4999150;28;20205;-45
2023/09/05 03:23:16;;;;;;;5.53;4.80;;;;;;;-146.87;100.00;60295.22;5001767;28;20185;-46
2023/09/05 03:25:42;;;;;;;4.55;4.15;;;;;;;-146.87;100.00;60295.22;5003076;28;20177;-44
2023/09/05 03:28:15;;;;;;;5.95;4.43;;;;;;;-146.87;100.00;60295.22;4994456;28;20204;-46
2023/09/05 03:30:43;;;;;;;4.72;4.32;;;;;;;-146.87;100.00;60295.22;5005954;28;20242;-45
2023/09/05 03:33:09;;;;;;;4.72;4.32;;;;;;;-146.87;100.00;60295.22;4998200;28;20255;-46
2023/09/05 03:35:35;;;;;;;4.88;4.47;;;;;;;-146.87;100.00;60295.22;4997572;28;20663;-47
2023/09/05 03:38:02;;;;;;;5.10;4.45;;;;;;;-146.87;100.00;60295.22;4994773;28;20422;-45
2023/09/05 03:40:28;;;;;;;4.40;4.10;;;;;;;-146.87;100.00;60295.22;4995722;28;20299;-46
2023/09/05 03:42:54;;;;;;;6.20;4.28;;;;;;;-146.87;100.00;60295.22;4999223;28;20196;-45
2023/09/05 03:45:20;;;;;;;4.50;4.07;;;;;;;-146.87;100.00;60295.22;5002120;28;20565;-46
2023/09/05 03:47:46;;;;;;;5.55;5.05;;;;;;;-146.87;100.00;60295.22;4999364;28;20207;-45
2023/09/05 03:50:13;;;;;;;4.53;4.13;;;;;;;-146.87;100.00;60295.22;5001080;28;20197;-44
2023/09/05 03:52:39;;;;;;;4.05;3.75;;;;;;;-146.87;100.00;60295.22;5001480;28;20200;-45
2023/09/05 03:55:06;;;;;;;4.80;4.40;;;;;;;-146.87;100.00;60295.22;5005307;28;20685;-45
2023/09/05 03:57:31;;;;;;;4.75;3.80;;;;;;;-146.87;100.00;60295.22;5005768;28;20179;-43
2023/09/05 03:59:57;;;;;;;4.38;3.97;;;;;;;-146.87;100.00;60295.22;4998392;28;20205;-45
2023/09/05 04:02:22;;;;;;;4.47;4.07;;;;;;;-146.87;100.00;60295.22;4997507;28;20190;-46
2023/09/05 04:04:48;;;;;;;5.53;4.65;;;;;;;-146.87;100.00;60295.22;4999156;28;20280;-46
2023/09/05 04:07:13;;;;;;;5.03;4.57;;;;;;;-146.87;100.00;60295.22;5000484;28;20205;-44
2023/09/05 04:09:39;;;;;;;4.68;4.28;;;;;;;-146.87;100.00;60295.22;5002373;28;20696;-45
2023/09/05 04:12:05;;;;;;;5.03;4.57;;;;;;;-146.87;100.00;60295.22;5005362;28;20382;-46
2023/09/05 04:14:30;;;;;;;5.00;4.55;;;;;;;-146.87;100.00;60295.22;4999660;28;20328;-46
2023/09/05 04:16:56;;;;;;;4.28;3.97;;;;;;;-146.87;100.00;60295.22;4998006;28;20169;-46
2023/09/05 04:19:21;;;;;;;4.40;4.00;;;;;;;-146.87;100.00;60295.22;4991009;28;20173;-45
2023/09/05 04:21:47;;;;;;;4.80;4.40;;;;;;;-146.87;100.00;60295.22;4999110;28;20181;-46
2023/09/05 04:24:12;;;;;;;6.68;4.10;;;;;;;-146.87;100.00;60295.22;4996291;28;20609;-46
2023/09/05 04:26:39;;;;;;;4.47;4.10;;;;;;;-146.87;100.00;60295.22;4998177;28;20237;-45
2023/09/05 04:29:05;;;;;;;4.20;3.80;;;;;;;-146.87;100.00;60295.22;5000851;28;20192;-45
2023/09/05 04:31:31;;;;;;;3.70;3.40;;;;;;;-146.87;100.00;60295.22;5005019;28;20354;-45
2023/09/05 04:33:56;;;;;;;4.07;3.70;;;;;;;-146.87;100.00;60295.22;5004127;28;20197;-45
2023/09/05 04:36:25;;;;;;;4.20;3.60;;;;;;;-146.87;100.00;60295.22;4994427;28;20184;-46
2023/09/05 04:38:51;;;;;;;4.03;3.72;;;;;;;-146.87;100.00;60295.22;4996463;28;20212;-45
2023/09/05 04:41:16;;;;;;;4.13;3.83;;;;;;;-146.87;100.00;60295.22;4996919;28;20698;-46
2023/09/05 04:43:42;;;;;;;5.10;4.10;;;;;;;-146.87;100.00;60295.22;4994662;28;20177;-47
2023/09/05 04:46:09;;;;;;;4.72;4.40;;;;;;;-146.87;100.00;60295.22;4996141;28;20230;-46
2023/09/05 04:48:35;;;;;;;4.70;3.70;;;;;;;-146.87;100.00;60295.22;4995812;28;20591;-46
2023/09/05 04:51:03;;;;;;;4.47;4.10;;;;;;;-146.87;100.00;60295.22;4994257;28;20294;-48
2023/09/05 04:53:29;;;;;;;4.13;3.83;;;;;;;-146.87;100.00;60295.22;4994661;28;20196;-47
2023/09/05 04:55:59;;;;;;;4.85;4.20;;;;;;;-146.87;100.00;60295.22;4997297;28;20196;-48
2023/09/05 04:58:29;;;;;;;3.70;3.45;;;;;;;-146.87;100.00;60295.22;4995185;28;20181;-46
2023/09/05 05:01:02;;;;;;;5.95;4.28;;;;;;;-146.87;100.00;60295.22;4998454;28;20216;-46
2023/09/05 05:03:32;;;;;;;6.75;4.20;;;;;;;-146.87;100.00;60295.22;4996704;28;20272;-48
2023/09/05 05:05:58;;;;;;;3.50;3.30;;;;;;;-146.87;100.00;60295.22;5010100;28;20190;-48
2023/09/05 05:08:24;;;;;;;4.28;3.90;;;;;;;-146.87;100.00;60295.22;4995270;28;20573;-46
2023/09/05 05:10:49;;;;;;;3.90;3.60;;;;;;;-146.87;100.00;60295.22;5000533;28;20695;-46
2023/09/05 05:13:15;;;;;;;3.40;3.20;;;;;;;-146.87;100.00;60295.22;4997023;28;20242;-47
2023/09/05 05:15:43;;;;;;;3.97;3.67;;;;;;;-146.87;100.00;60295.22;4998055;28;20264;-47
2023/09/05 05:18:08;;;;;;;4.45;4.10;;;;;;;-146.87;100.00;60295.22;4995914;28;20251;-48
2023/09/05 05:20:34;;;;;;;4.13;3.78;;;;;;;-146.87;100.00;60295.22;4997843;28;20298;-46
2023/09/05 05:22:59;;;;;;;4.90;4.50;;;;;;;-146.87;100.00;60295.22;4992261;28;20189;-47
2023/09/05 05:25:25;;;;;;;4.93;3.92;;;;;;;-146.87;100.00;60295.22;5005060;28;20185;-46
2023/09/05 05:27:50;;;;;;;3.97;3.55;;;;;;;-146.87;100.00;60295.22;4997547;28;20239;-47
2023/09/05 05:30:16;;;;;;;3.15;2.95;;;;;;;-146.87;100.00;60295.22;4995952;28;20200;-46
2023/09/05 05:32:41;;;;;;;5.93;4.10;;;;;;;-146.87;100.00;60295.22;4994084;28;20193;-48
2023/09/05 05:35:08;;;;;;;3.95;3.45;;;;;;;-146.87;100.00;60295.22;4995412;28;20191;-47
2023/09/05 05:37:34;;;;;;;8.07;4.55;;;;;;;-146.87;100.00;60295.22;4999449;28;20165;-47
2023/09/05 05:39:59;;;;;;;12.55;3.70;;;;;;;-146.87;100.00;60295.22;4992409;28;20208;-46
2023/09/05 05:42:25;;;;;;;59.75;7.85;;;;;;;-146.87;100.00;60295.22;4994535;28;20227;-46
2023/09/05 05:44:50;;;;;;;50.97;7.15;;;;;;;-146.87;100.00;60295.22;4997007;28;20307;-48
2023/09/05 05:47:16;;;;;;;29.40;4.68;;;;;;;-146.87;100.00;60295.22;4995405;28;20208;-47
2023/09/05 05:49:41;;;;;;;26.88;5.43;;;;;;;-146.87;100.00;60295.22;4998592;28;20219;-48
2023/09/05 05:52:08;;;;;;;26.75;4.13;;;;;;;-146.87;100.00;60295.22;4999194;28;20662;-47
2023/09/05 05:54:34;;;;;;;11.85;3.80;;;;;;;-146.87;100.00;60295.22;4998419;28;20723;-47
2023/09/05 05:57:02;;;;;;;7.80;3.15;;;;;;;-146.87;100.00;60295.22;4995698;28;20307;-46
2023/09/05 05:59:27;;;;;;;10.68;3.22;;;;;;;-146.87;100.00;60295.22;4991411;28;20197;-49
2023/09/05 06:01:55;;;;;;;3.92;2.70;;;;;;;-146.87;100.00;60295.22;4993343;28;20716;-47
2023/09/05 06:04:21;;;;;;;5.10;2.35;;;;;;;-146.87;100.00;60295.22;4999461;28;20189;-47
2023/09/05 06:06:48;;;;;;;4.15;2.80;;;;;;;-146.87;100.00;60295.22;4996238;28;20694;-49
2023/09/05 06:09:16;;;;;;;3.95;3.65;;;;;;;-146.87;100.00;60295.22;4994902;28;20170;-48
2023/09/05 06:11:42;;;;;;;3.20;2.85;;;;;;;-146.87;100.00;60295.22;4998881;28;20228;-46
2023/09/05 06:14:07;;;;;;;11.25;4.38;;;;;;;-146.87;100.00;60295.22;4997512;28;20704;-47
2023/09/05 06:16:33;;;;;;;3.40;3.20;;;;;;;-146.87;100.00;60295.22;4993100;28;20172;-47
2023/09/05 06:18:58;;;;;;;9.27;4.20;;;;;;;-146.87;100.00;60295.22;4999571;28;20192;-47
2023/09/05 06:21:23;;;;;;;3.58;3.28;;;;;;;-146.87;100.00;60295.22;4999006;28;20315;-49
2023/09/05 06:23:49;;;;;;;3.20;2.90;;;;;;;-146.87;100.00;60295.22;5002801;28;20176;-48
2023/09/05 06:26:16;;;;;;;4.93;3.00;;;;;;;-146.87;100.00;60295.22;4994607;28;20185;-48
2023/09/05 06:28:41;;;;;;;4.18;2.65;;;;;;;-146.87;100.00;60295.22;4999235;28;20309;-48
2023/09/05 06:31:07;;;;;;;26.27;5.60;;;;;;;-146.87;100.00;60295.22;4997614;28;20291;-51
2023/09/05 06:33:33;;;;;;;44.42;7.78;;;;;;;-146.87;100.00;60295.22;4990891;28;20613;-47
2023/09/05 06:36:04;;;;;;;22.15;5.63;;;;;;;-146.87;100.00;60295.22;4993833;28;20185;-48
2023/09/05 06:38:30;;;;;;;12.15;4.32;;;;;;;-146.87;100.00;60295.22;4997169;28;20655;-48
2023/09/05 06:40:55;;;;;;;9.65;3.25;;;;;;;-146.87;100.00;60295.22;4992829;28;20217;-44
2023/09/05 06:43:21;;;;;;;5.93;3.25;;;;;;;-146.87;100.00;60295.22;4993944;28;20264;-43
2023/09/05 06:45:46;;;;;;;4.72;2.83;;;;;;;-146.87;100.00;60295.22;4998481;28;20199;-44
2023/09/05 06:48:12;;;;;;;4.65;2.78;;;;;;;-146.87;100.00;60295.22;4993911;28;20535;-44
2023/09/05 06:50:37;;;;;;;5.90;3.10;;;;;;;-146.87;100.00;60295.22;4998489;28;20212;-44
2023/09/05 06:53:03;;;;;;;4.20;3.25;;;;;;;-146.87;100.00;60295.22;4985409;28;20196;-44
2023/09/05 06:55:28;;;;;;;4.85;3.20;;;;;;;-146.87;100.00;60295.22;4994310;28;20864;-44
2023/09/05 06:57:54;;;;;;;4.82;2.90;;;;;;;-146.87;100.00;60295.22;4995301;28;20189;-44
2023/09/05 07:00:23;;;;;;;4.72;2.95;;;;;;;-146.87;100.00;60295.22;4999238;28;20208;-44
2023/09/05 07:02:49;;;;;;;3.33;2.83;;;;;;;-146.87;100.00;60295.22;4998511;28;20185;-44
2023/09/05 07:05:15;;;;;;;4.65;3.10;;;;;;;-146.87;100.00;60295.22;4996947;28;20188;-44
2023/09/05 07:07:40;;;;;;;4.43;3.20;;;;;;;-146.87;100.00;60295.22;4995500;28;20204;-45
2023/09/05 07:10:06;;;;;;;5.72;3.08;;;;;;;-146.87;100.00;60295.22;5000426;28;20208;-42
2023/09/05 07:12:32;;;;;;;4.30;2.78;;;;;;;-146.87;100.00;60295.22;4999638;28;20212;-44
2023/09/05 07:14:57;;;;;;;3.65;2.70;;;;;;;-146.87;100.00;60295.22;4997798;28;20277;-45
2023/09/05 07:17:23;;;;;;;3.92;3.03;;;;;;;-146.87;100.00;60295.22;4998776;28;20219;-43
2023/09/05 07:19:48;;;;;;;3.40;3.10;;;;;;;-146.87;100.00;60295.22;4998745;28;20232;-44
2023/09/05 07:22:14;;;;;;;5.22;2.75;;;;;;;-146.87;100.00;60295.22;5003532;28;20180;-42
2023/09/05 07:24:39;;;;;;;7.15;3.13;;;;;;;-146.87;100.00;60295.22;4996246;28;20646;-42
2023/09/05 07:27:05;;;;;;;3.83;2.67;;;;;;;-146.87;100.00;60295.22;5000433;28;20230;-45
2023/09/05 07:29:31;;;;;;;7.18;2.80;;;;;;;-146.87;100.00;60295.22;5000836;28;20283;-46
2023/09/05 07:31:56;;;;;;;7.25;2.60;;;;;;;-146.87;100.00;60295.22;5002316;28;20513;-44
2023/09/05 07:34:22;;;;;;;5.22;2.60;;;;;;;-146.87;100.00;60295.22;5000969;28;20185;-44
2023/09/05 07:36:47;;;;;;;5.30;2.50;;;;;;;-146.87;100.00;60295.22;5002710;28;20268;-42
2023/09/05 07:39:13;;;;;;;3.80;2.60;;;;;;;-146.87;100.00;60295.22;4998963;28;20189;-45
2023/09/05 07:41:39;;;;;;;5.10;2.72;;;;;;;-146.87;100.00;60295.22;5001953;28;20208;-43
2023/09/05 07:44:05;;;;;;;5.55;2.60;;;;;;;-146.87;100.00;60295.22;4998645;28;20189;-42
2023/09/05 07:46:30;;;;;;;4.28;3.08;;;;;;;-146.87;100.00;60295.22;4999440;28;20246;-45
2023/09/05 07:48:56;;;;;;;4.43;2.72;;;;;;;-146.87;100.00;60295.22;4997562;28;20579;-44
2023/09/05 07:51:24;;;;;;;4.53;2.53;;;;;;;-146.87;100.00;60295.22;4994624;28;20212;-43
2023/09/05 07:54:03;;;;;;;5.18;2.67;;;;;;;-146.87;100.00;60295.22;5000734;28;20194;-43
2023/09/05 07:56:29;;;;;;;4.10;2.40;;;;;;;-146.87;100.00;60295.22;5000587;28;20272;-43
2023/09/05 07:58:55;;;;;;;3.80;2.35;;;;;;;-146.87;100.00;60295.22;5000983;28;20263;-44
2023/09/05 08:01:20;;;;;;;2.58;2.10;;;;;;;-146.87;100.00;60295.22;4998139;28;20216;-43
2023/09/05 08:03:47;;;;;;;26.08;4.45;;;;;;;-146.87;100.00;60295.22;5000834;28;20185;-42
2023/09/05 08:06:13;;;;;;;4.70;2.47;;;;;;;-146.87;100.00;60295.22;4997481;28;20204;-42
2023/09/05 08:08:39;;;;;;;2.60;2.40;;;;;;;-146.87;100.00;60295.22;4995949;28;20219;-44
2023/09/05 08:11:04;;;;;;;3.45;2.17;;;;;;;-146.87;100.00;60295.22;4995768;28;20228;-44
2023/09/05 08:13:30;;;;;;;3.20;2.60;;;;;;;-146.87;100.00;60295.22;4997611;28;20669;-43
2023/09/05 08:15:56;;;;;;;2.97;2.28;;;;;;;-146.87;100.00;60295.22;5000652;28;20275;-44
2023/09/05 08:18:21;;;;;;;3.65;2.15;;;;;;;-146.87;100.00;60295.22;5000203;28;20228;-43
2023/09/05 08:20:47;;;;;;;3.83;2.45;;;;;;;-146.87;100.00;60295.22;4997378;28;20506;-42
2023/09/05 08:23:12;;;;;;;3.70;2.30;;;;;;;-146.87;100.00;60295.22;4994625;28;20185;-45
2023/09/05 08:25:38;;;;;;;2.75;2.38;;;;;;;-146.87;100.00;60295.22;4999097;28;20189;-43
2023/09/05 08:28:05;;;;;;;3.80;2.40;;;;;;;-146.87;100.00;60295.22;4998573;28;20212;-42
2023/09/05 08:30:31;;;;;;;3.00;2.00;;;;;;;-146.87;100.00;60295.22;5001729;28;20199;-42
2023/09/05 08:32:58;;;;;;;4.85;2.22;;;;;;;-146.87;100.00;60295.22;5000642;28;20185;-44
2023/09/05 08:35:24;;;;;;;2.80;2.50;;;;;;;-146.87;100.00;60295.22;4998878;28;20267;-43
2023/09/05 08:37:50;;;;;;;2.67;2.47;;;;;;;-146.87;100.00;60295.22;4995346;28;20710;-42
2023/09/05 08:40:15;;;;;;;4.05;2.83;;;;;;;-146.87;100.00;60295.22;4996317;28;20215;-44
2023/09/05 08:42:42;;;;;;;5.30;2.55;;;;;;;-146.87;100.00;60295.22;4997945;28;20191;-39
2023/09/05 08:45:11;;;;;;;4.80;2.70;;;;;;;-146.87;100.00;60295.22;4997852;28;20192;-43
2023/09/05 08:47:38;;;;;;;5.47;2.92;;;;;;;-146.87;100.00;60295.22;4996303;28;20243;-43
2023/09/05 08:50:04;;;;;;;3.83;2.55;;;;;;;-146.87;100.00;60295.22;4992606;28;20670;-44
2023/09/05 08:52:33;;;;;;;3.88;2.80;;;;;;;-146.87;100.00;60295.22;4997889;28;20188;-43
2023/09/05 08:54:59;;;;;;;5.10;2.90;;;;;;;-146.87;100.00;60295.22;4993940;28;20242;-43
2023/09/05 08:57:27;;;;;;;6.78;3.10;;;;;;;-146.87;100.00;60295.22;4996771;28;20289;-43
2023/09/05 08:59:56;;;;;;;3.30;3.00;;;;;;;-146.87;100.00;60295.22;5004058;28;20339;-44
2023/09/05 09:02:21;;;;;;;3.10;2.63;;;;;;;-146.87;100.00;60295.22;4999182;28;20275;-44
2023/09/05 09:04:56;;;;;;;5.00;2.85;;;;;;;-146.87;100.00;60295.22;4996673;28;20601;-41
2023/09/05 09:07:27;;;;;;;3.13;2.90;;;;;;;-146.87;100.00;60295.22;4998338;28;20552;-43
2023/09/05 09:09:58;;;;;;;4.72;2.67;;;;;;;-146.87;100.00;60295.22;4995857;28;20613;-40
2023/09/05 09:12:31;;;;;;;3.83;2.70;;;;;;;-146.87;100.00;60295.22;4994532;28;20250;-41
2023/09/05 09:15:09;;;;;;;3.00;2.70;;;;;;;-146.87;100.00;60295.22;5002184;28;20245;-44
2023/09/05 09:17:36;;;;;;;4.93;2.90;;;;;;;-146.87;100.00;60295.22;4994918;28;20270;-44
2023/09/05 09:20:05;;;;;;;4.20;2.67;;;;;;;-146.87;100.00;60295.22;4996150;28;20204;-44
2023/09/05 09:22:31;;;;;;;3.50;2.85;;;;;;;-146.87;100.00;60295.22;4997129;28;20611;-43
2023/09/05 09:24:56;;;;;;;3.17;2.88;;;;;;;-146.87;100.00;60295.22;4997581;28;20220;-45
2023/09/05 09:27:23;;;;;;;5.57;2.90;;;;;;;-146.87;100.00;60295.22;4993099;28;20215;-45
2023/09/05 09:29:55;;;;;;;3.08;2.72;;;;;;;-146.87;100.00;60295.22;4995111;28;20208;-46
2023/09/05 09:32:24;;;;;;;6.57;2.90;;;;;;;-146.87;100.00;60295.22;5000059;28;20610;-45
2023/09/05 09:34:55;;;;;;;3.65;2.90;;;;;;;-146.87;100.00;60295.22;4998737;28;20176;-46
2023/09/05 09:37:25;;;;;;;7.15;3.28;;;;;;;-146.87;100.00;60295.22;4996602;28;20696;-45
2023/09/05 09:39:56;;;;;;;4.95;2.72;;;;;;;-146.87;100.00;60295.22;4994370;28;20204;-44
2023/09/05 09:42:26;;;;;;;3.42;3.10;;;;;;;-146.87;100.00;60295.22;4997461;28;20508;-44
2023/09/05 09:44:54;;;;;;;6.38;2.90;;;;;;;-146.87;100.00;60295.22;4998672;28;20799;-44
2023/09/05 09:47:20;;;;;;;4.57;2.88;;;;;;;-146.87;100.00;60295.22;4996385;28;20239;-46
2023/09/05 09:49:51;;;;;;;5.88;2.92;;;;;;;-146.87;100.00;60295.22;4998994;28;20207;-47
2023/09/05 09:52:22;;;;;;;5.75;2.55;;;;;;;-146.87;100.00;60295.22;4996164;28;20643;-44
2023/09/05 09:54:53;;;;;;;5.40;2.55;;;;;;;-146.87;100.00;60295.22;4994274;28;20177;-45
2023/09/05 09:57:33;;;;;;;5.40;3.20;;;;;;;-146.87;100.00;60295.22;4996025;28;20176;-48
2023/09/05 10:00:15;;;;;;;7.95;3.20;;;;;;;-146.87;100.00;60295.22;4996371;28;20251;-45
2023/09/05 10:02:45;;;;;;;5.03;3.28;;;;;;;-146.87;100.00;60295.22;4993360;28;20219;-44
2023/09/05 10:05:12;;;;;;;4.63;3.05;;;;;;;-146.87;100.00;60295.22;5000590;28;20608;-48
2023/09/05 10:07:38;;;;;;;5.10;3.13;;;;;;;-146.87;100.00;60295.22;4995140;28;20237;-45
2023/09/05 10:10:09;;;;;;;5.80;3.00;;;;;;;-146.87;100.00;60295.22;4995956;28;20726;-46
2023/09/05 10:12:37;;;;;;;8.63;3.22;;;;;;;-146.87;100.00;60295.22;4992900;28;20978;-45
2023/09/05 10:15:07;;;;;;;6.43;3.17;;;;;;;-146.87;100.00;60295.22;4995423;28;20271;-47
2023/09/05 10:17:33;;;;;;;5.30;2.97;;;;;;;-146.87;100.00;60295.22;4998023;28;20230;-45
2023/09/05 10:19:59;;;;;;;3.60;3.30;;;;;;;-146.87;100.00;60295.22;4994958;28;20209;-45
2023/09/05 10:22:25;;;;;;;4.25;2.75;;;;;;;-146.87;100.00;60295.22;4995853;28;20184;-48
2023/09/05 10:24:53;;;;;;;7.30;3.78;;;;;;;-146.87;100.00;60295.22;4997798;28;20196;-46
2023/09/05 10:27:18;;;;;;;5.18;3.00;;;;;;;-146.87;100.00;60295.22;4996068;28;20209;-44
2023/09/05 10:29:45;;;;;;;4.13;2.97;;;;;;;-146.87;100.00;60295.22;5000223;28;20218;-44
2023/09/05 10:32:18;;;;;;;4.10;2.40;;;;;;;-146.87;100.00;60295.22;4996986;28;20243;-47
2023/09/05 10:34:46;;;;;;;2.92;2.60;;;;;;;-146.87;100.00;60295.22;4997652;28;20560;-46
2023/09/05 10:37:13;;;;;;;3.67;2.85;;;;;;;-146.87;100.00;60295.22;5002967;28;20188;-45
2023/09/05 10:39:44;;;;;;;4.18;2.75;;;;;;;-146.87;100.00;60295.22;5000615;28;20556;-46
2023/09/05 10:42:12;;;;;;;4.28;2.78;;;;;;;-146.87;100.00;60295.22;4999850;28;20213;-45
2023/09/05 10:44:41;;;;;;;3.03;2.55;;;;;;;-146.87;100.00;60295.22;4999263;28;20654;-43
2023/09/05 10:47:29;;;;;;;6.30;2.40;;;;;;;-146.87;100.00;60295.22;4997406;28;20654;-47
2023/09/05 10:50:06;;;;;;;3.47;2.50;;;;;;;-146.87;100.00;60295.22;5003249;28;20218;-48
2023/09/05 10:52:32;;;;;;;3.72;2.72;;;;;;;-146.87;100.00;60295.22;5004745;28;20180;-45
2023/09/05 10:55:00;;;;;;;6.75;3.25;;;;;;;-146.87;100.00;60295.22;5001946;28;20190;-46
2023/09/05 10:57:40;;;;;;;7.00;3.35;;;;;;;-146.87;100.00;60295.22;5001732;28;20172;-45
2023/09/05 11:00:15;;;;;;;4.32;3.20;;;;;;;-146.87;100.00;60295.22;5000416;28;20211;-46
2023/09/05 11:02:45;;;;;;;3.22;2.92;;;;;;;-146.87;100.00;60295.22;5000259;28;20183;-44
2023/09/05 11:05:19;;;;;;;4.38;2.90;;;;;;;-146.87;100.00;60295.22;5004432;28;20664;-44
2023/09/05 11:07:45;;;;;;;4.53;3.65;;;;;;;-146.87;100.00;60295.22;5001586;28;20326;-46
2023/09/05 11:10:24;;;;;;;3.78;3.05;;;;;;;-146.87;100.00;60295.22;5002974;28;20293;-44